Página principal
Imagens de satélite Previsões 15 diasClimaMeteorologia maritima Ciclones Descargas eléctricas AeroportosFAQ Notícias Sobre
Tempo : Europa África América do Norte América do Sul Ásia Austrália-Oceania Outros
Línguas Contacto

Cambridge, Inglaterra

latitude: 52-12N, longitude: 000-11E, altura: 15 m


METAR: EGSC 171920Z 36004KT 4000 BR FEW008 SCT012 16/15 Q1012
short-TAF: EGSC 171910Z 1719/1721 04006KT 6000 SCT012 PROB30 1719/1721 4000 BR BKN009
long-TAF: em falta

Hora: 02:35 (01:35 UTC)

Observação actual do tempo

O boletim foi feito há 6 horas e 15 minutos, às 19:20 UTC  
Vento 04 kt de norte
Temperatura 16°C
Humidade 94%
Pressão 1012 hPa
Visibilidade 4000 m
Poucas nuvens a uma altura de 800 ft
Nuvens dispersas a uma altura de 1200 ft
neblina

Mudar unidades

Previsão

O boletim foi feito há 6 horas e 23 minutos, às 19:12 UTC  
Previsão válida de 17 às 19 UTC a 17 às 21 UTC
Vento 06 kt de nordeste
Visibilidade 6000 m
Nuvens dispersas a uma altura de 1200 ft
Probabilidade 30%
de 17 às 19 UTC a 17 às 21 UTC
Visibilidade 4000 m
Nuvens fragmentadas a uma altura de 900 ft
neblina
As informações contidas neste sítio estão sujeitas a uma declaração de exoneração de responsabilidade
Tempo : Europa África América do Norte América do Sul Ásia Austrália-Oceania Outros
Imagens de satélite Previsões 15 diasClimaMeteorologia maritima Ciclones Descargas eléctricas AeroportosFAQ Línguas Contacto Notícias Sobre